createdAt,value
2018-02-25T00:01:30.725Z,46.20
2018-02-25T00:03:58.223Z,46.20
2018-02-25T00:06:25.685Z,46.20
2018-02-25T00:08:53.968Z,46.20
2018-02-25T00:11:22.222Z,46.10
2018-02-25T00:13:49.675Z,46.10
2018-02-25T00:16:17.125Z,46.20
2018-02-25T00:18:44.610Z,46.20
2018-02-25T00:21:12.838Z,46.10
2018-02-25T00:23:40.328Z,46.00
2018-02-25T00:26:07.829Z,46.00
2018-02-25T00:28:35.289Z,46.00
2018-02-25T00:31:02.758Z,45.90
2018-02-25T00:33:30.249Z,46.00
2018-02-25T00:35:57.719Z,45.90
2018-02-25T00:38:25.202Z,45.90
2018-02-25T00:40:52.672Z,45.80
2018-02-25T00:43:20.138Z,45.70
2018-02-25T00:45:47.621Z,45.70
2018-02-25T00:48:15.108Z,45.70
2018-02-25T00:50:42.597Z,45.60
2018-02-25T00:53:10.835Z,45.60
2018-02-25T00:55:38.529Z,45.60
2018-02-25T00:58:06.837Z,46.20
2018-02-25T01:00:34.293Z,45.70
2018-02-25T01:03:01.766Z,45.70
2018-02-25T01:05:29.425Z,45.80
2018-02-25T01:07:56.884Z,45.80
2018-02-25T01:10:24.370Z,45.80
2018-02-25T01:12:51.849Z,45.80
2018-02-25T01:15:19.320Z,45.80
2018-02-25T01:17:46.818Z,45.90
2018-02-25T01:20:14.277Z,45.90
2018-02-25T01:22:41.769Z,45.80
2018-02-25T01:25:09.220Z,45.90
2018-02-25T01:27:36.706Z,45.90
2018-02-25T01:30:05.011Z,46.00
2018-02-25T01:32:32.474Z,45.90
2018-02-25T01:34:59.952Z,45.90
2018-02-25T01:37:27.441Z,45.90
2018-02-25T01:39:54.922Z,46.00
2018-02-25T01:42:22.382Z,46.00
2018-02-25T01:44:49.857Z,46.00
2018-02-25T01:47:17.349Z,46.00
2018-02-25T01:49:45.573Z,46.10
2018-02-25T01:52:13.042Z,46.00
2018-02-25T01:54:40.526Z,46.00
2018-02-25T01:57:07.984Z,46.00
2018-02-25T01:59:35.521Z,46.00
2018-02-25T02:02:03.765Z,46.10
2018-02-25T02:04:31.226Z,46.00
2018-02-25T02:06:58.717Z,46.10
2018-02-25T02:09:26.178Z,46.00
2018-02-25T02:11:53.646Z,46.10
2018-02-25T02:14:21.131Z,46.00
2018-02-25T02:16:48.577Z,46.10
2018-02-25T02:19:16.053Z,46.10
2018-02-25T02:21:43.537Z,46.20
2018-02-25T02:24:10.998Z,46.20
2018-02-25T02:26:38.457Z,46.10
2018-02-25T02:29:05.947Z,46.20
2018-02-25T02:31:33.409Z,46.20
2018-02-25T02:34:00.885Z,46.20
2018-02-25T02:36:28.380Z,46.20
2018-02-25T02:38:55.864Z,46.20
2018-02-25T02:41:24.117Z,46.20
2018-02-25T02:43:51.606Z,46.20
2018-02-25T02:46:19.062Z,46.20
2018-02-25T02:48:46.526Z,46.20
2018-02-25T02:51:14.004Z,46.20
2018-02-25T02:53:41.490Z,46.20
2018-02-25T02:56:08.970Z,46.20
2018-02-25T02:58:36.451Z,46.30
2018-02-25T03:01:03.947Z,46.30
2018-02-25T03:03:31.426Z,46.30
2018-02-25T03:05:58.900Z,46.30
2018-02-25T03:08:26.400Z,46.90
2018-02-25T03:10:53.893Z,46.40
2018-02-25T03:13:21.374Z,46.40
2018-02-25T03:15:48.829Z,46.40
2018-02-25T03:18:16.311Z,46.30
2018-02-25T03:20:43.877Z,46.30
2018-02-25T03:23:12.123Z,46.40
2018-02-25T03:25:39.588Z,46.40
2018-02-25T03:28:07.109Z,46.50
2018-02-25T03:30:34.566Z,47.00
2018-02-25T03:33:02.057Z,46.40
2018-02-25T03:35:29.550Z,46.50
2018-02-25T03:37:57.020Z,46.50
2018-02-25T03:40:24.498Z,46.50
2018-02-25T03:42:51.966Z,46.60
2018-02-25T03:45:19.414Z,46.60
2018-02-25T03:47:46.899Z,46.60
2018-02-25T03:50:14.398Z,46.60
2018-02-25T03:52:42.646Z,46.60
2018-02-25T03:55:10.116Z,46.60
2018-02-25T03:57:37.594Z,46.60
2018-02-25T04:00:05.059Z,46.60
2018-02-25T04:02:32.561Z,46.60
2018-02-25T04:05:00.023Z,46.60
2018-02-25T04:07:27.482Z,46.60
2018-02-25T04:09:54.965Z,46.60
2018-02-25T04:12:22.412Z,46.60
2018-02-25T04:14:49.891Z,46.60
2018-02-25T04:17:18.132Z,46.60
2018-02-25T04:19:45.603Z,46.60
2018-02-25T04:22:13.090Z,46.60
2018-02-25T04:24:40.564Z,46.50
2018-02-25T04:27:08.042Z,46.40
2018-02-25T04:29:35.496Z,46.30
2018-02-25T04:32:02.990Z,46.30
2018-02-25T04:34:30.445Z,46.40
2018-02-25T04:36:57.904Z,46.40
2018-02-25T04:39:25.398Z,46.40
2018-02-25T04:41:53.641Z,46.30
2018-02-25T04:44:21.113Z,46.30
2018-02-25T04:46:48.683Z,46.40
2018-02-25T04:49:16.137Z,46.40
2018-02-25T04:51:43.620Z,46.40
2018-02-25T04:54:11.073Z,46.40
2018-02-25T04:56:38.563Z,46.40
2018-02-25T04:59:06.041Z,46.40
2018-02-25T05:01:33.517Z,46.30
2018-02-25T05:04:00.995Z,46.90
2018-02-25T05:06:29.241Z,46.30
2018-02-25T05:08:56.711Z,46.30
2018-02-25T05:11:24.177Z,46.40
2018-02-25T05:13:51.669Z,46.30
2018-02-25T05:16:19.134Z,46.30
2018-02-25T05:18:46.594Z,46.40
2018-02-25T05:21:14.068Z,46.30
2018-02-25T05:23:41.539Z,46.30
2018-02-25T05:26:09.009Z,46.30
2018-02-25T05:28:36.452Z,46.30
2018-02-25T05:31:03.939Z,46.30
2018-02-25T05:33:31.422Z,46.20
2018-02-25T05:35:58.893Z,46.20
2018-02-25T05:38:26.362Z,46.30
2018-02-25T05:40:53.831Z,46.30
2018-02-25T05:43:21.290Z,46.30
2018-02-25T05:45:48.762Z,46.30
2018-02-25T05:48:16.266Z,46.40
2018-02-25T05:50:44.493Z,46.20
2018-02-25T05:53:11.965Z,46.20
2018-02-25T05:55:39.542Z,46.30
2018-02-25T05:58:07.013Z,46.30
2018-02-25T06:00:34.489Z,46.30
2018-02-25T06:03:01.976Z,46.20
2018-02-25T06:05:29.460Z,46.20
2018-02-25T06:07:56.922Z,46.30
2018-02-25T06:10:24.378Z,46.30
2018-02-25T06:12:51.881Z,46.40
2018-02-25T06:15:20.157Z,46.40
2018-02-25T06:17:47.637Z,46.40
2018-02-25T06:20:15.089Z,46.40
2018-02-25T06:22:42.574Z,46.50
2018-02-25T06:25:10.029Z,46.50
2018-02-25T06:27:37.508Z,46.50
2018-02-25T06:30:04.983Z,46.60
2018-02-25T06:32:32.465Z,46.60
2018-02-25T06:34:59.958Z,46.70
2018-02-25T06:37:27.428Z,46.70
2018-02-25T06:39:54.925Z,46.80
2018-02-25T06:42:23.193Z,46.80
2018-02-25T06:44:50.642Z,46.80
2018-02-25T06:47:18.145Z,46.80
2018-02-25T06:49:45.607Z,46.80
2018-02-25T06:52:13.065Z,46.80
2018-02-25T06:54:40.554Z,46.90
2018-02-25T06:57:08.006Z,46.90
2018-02-25T06:59:35.465Z,47.00
2018-02-25T07:02:02.941Z,47.00
2018-02-25T07:04:30.426Z,47.00
2018-02-25T07:06:58.676Z,47.30
2018-02-25T07:09:26.131Z,47.20
2018-02-25T07:11:53.585Z,47.30
2018-02-25T07:14:21.058Z,47.40
2018-02-25T07:16:48.534Z,47.40
2018-02-25T07:19:16.745Z,47.50
2018-02-25T07:21:44.232Z,47.50
2018-02-25T07:24:11.741Z,47.60
2018-02-25T07:26:39.206Z,47.60
2018-02-25T07:29:06.676Z,47.60
2018-02-25T07:31:34.146Z,47.60
2018-02-25T07:34:01.637Z,47.70
2018-02-25T07:36:29.093Z,47.70
2018-02-25T07:38:56.582Z,47.70
2018-02-25T07:41:24.062Z,47.70
2018-02-25T07:43:51.525Z,47.80
2018-02-25T07:46:19.006Z,47.80
2018-02-25T07:48:46.471Z,47.70
2018-02-25T07:51:13.949Z,47.80
2018-02-25T07:53:41.412Z,47.80
2018-02-25T07:56:09.082Z,47.70
2018-02-25T07:58:36.609Z,47.70
2018-02-25T08:01:04.316Z,47.70
2018-02-25T08:03:31.818Z,47.70
2018-02-25T08:05:59.529Z,47.70
2018-02-25T08:08:27.150Z,47.70
2018-02-25T08:10:54.670Z,47.60
2018-02-25T08:13:22.122Z,47.60
2018-02-25T08:15:49.914Z,47.60
2018-02-25T08:18:17.580Z,47.50
2018-02-25T08:20:45.262Z,47.50
2018-02-25T08:23:12.843Z,47.50
2018-02-25T08:25:40.542Z,47.40
2018-02-25T08:28:08.089Z,47.40
2018-02-25T08:30:35.930Z,47.40
2018-02-25T08:33:03.767Z,47.30
2018-02-25T08:35:31.334Z,47.20
2018-02-25T08:37:58.830Z,47.20
2018-02-25T08:40:27.293Z,46.90
2018-02-25T08:42:55.615Z,46.80
2018-02-25T08:45:23.091Z,46.80
2018-02-25T08:47:50.872Z,46.80
2018-02-25T08:50:18.450Z,46.70
2018-02-25T08:52:45.925Z,46.60
2018-02-25T08:55:13.532Z,46.50
2018-02-25T08:57:41.104Z,46.60
2018-02-25T09:00:08.792Z,47.00
2018-02-25T09:02:36.373Z,46.20
2018-02-25T09:05:03.835Z,46.10
2018-02-25T09:07:32.092Z,46.00
2018-02-25T09:09:59.683Z,45.90
2018-02-25T09:12:27.428Z,45.80
2018-02-25T09:14:55.769Z,45.40
2018-02-25T09:17:23.325Z,45.40
2018-02-25T09:19:50.789Z,45.30
2018-02-25T09:22:18.249Z,45.00
2018-02-25T09:24:45.725Z,44.80
2018-02-25T09:27:13.182Z,44.60
2018-02-25T09:29:40.741Z,44.40
2018-02-25T09:32:08.198Z,44.00
2018-02-25T09:34:35.680Z,43.70
2018-02-25T09:37:03.957Z,43.50
2018-02-25T09:39:31.450Z,43.50
2018-02-25T09:41:58.965Z,43.50
2018-02-25T09:44:26.465Z,43.30
2018-02-25T09:46:53.940Z,43.20
2018-02-25T09:49:21.428Z,43.20
2018-02-25T09:51:48.907Z,43.30
2018-02-25T09:54:16.397Z,43.10
2018-02-25T09:56:43.881Z,42.90
2018-02-25T09:59:11.385Z,42.70
2018-02-25T10:01:39.651Z,42.40
2018-02-25T10:04:07.179Z,42.40
2018-02-25T10:06:34.653Z,42.00
2018-02-25T10:09:02.131Z,41.60
2018-02-25T10:11:29.601Z,41.60
2018-02-25T10:13:57.081Z,41.40
2018-02-25T10:16:24.573Z,41.30
2018-02-25T10:18:52.046Z,40.80
2018-02-25T10:21:19.521Z,40.70
2018-02-25T10:23:47.101Z,40.80
2018-02-25T10:26:14.598Z,40.70
2018-02-25T10:28:42.066Z,40.60
2018-02-25T10:31:09.562Z,41.10
2018-02-25T10:33:37.040Z,40.50
2018-02-25T10:36:04.512Z,40.50
2018-02-25T10:38:31.993Z,40.60
2018-02-25T10:40:59.484Z,40.70
2018-02-25T10:43:26.950Z,40.70
2018-02-25T10:45:55.181Z,40.40
2018-02-25T10:48:22.653Z,40.30
2018-02-25T10:50:50.118Z,40.20
2018-02-25T10:53:17.589Z,40.00
2018-02-25T10:55:45.053Z,39.80
2018-02-25T10:58:12.544Z,39.40
2018-02-25T11:00:40.005Z,39.40
2018-02-25T11:03:07.494Z,39.30
2018-02-25T11:05:35.769Z,39.20
2018-02-25T11:08:03.246Z,39.40
2018-02-25T11:10:30.717Z,39.10
2018-02-25T11:12:58.228Z,39.00
2018-02-25T11:15:25.692Z,38.90
2018-02-25T11:17:53.136Z,38.80
2018-02-25T11:20:20.633Z,38.60
2018-02-25T11:22:48.216Z,37.90
2018-02-25T11:25:15.721Z,37.70
2018-02-25T11:27:43.219Z,37.80
2018-02-25T11:30:10.673Z,37.80
2018-02-25T11:32:38.207Z,37.70
2018-02-25T11:35:05.693Z,37.70
2018-02-25T11:37:33.144Z,37.60
2018-02-25T11:40:00.634Z,37.50
2018-02-25T11:42:28.873Z,37.10
2018-02-25T11:44:56.325Z,37.00
2018-02-25T11:47:23.805Z,37.20
2018-02-25T11:49:51.290Z,36.90
2018-02-25T11:52:18.749Z,36.60
2018-02-25T11:54:46.259Z,36.40
2018-02-25T11:57:13.734Z,36.30
2018-02-25T11:59:41.212Z,36.20
2018-02-25T12:02:08.685Z,36.30
2018-02-25T12:04:36.950Z,35.60
2018-02-25T12:07:04.428Z,35.60
2018-02-25T12:09:31.877Z,35.30
2018-02-25T12:11:59.329Z,35.00
2018-02-25T12:14:26.808Z,35.10
2018-02-25T12:16:54.290Z,34.80
2018-02-25T12:19:21.825Z,34.60
2018-02-25T12:21:50.042Z,34.80
2018-02-25T12:24:17.549Z,34.80
2018-02-25T12:26:45.786Z,34.60
2018-02-25T12:29:13.288Z,34.50
2018-02-25T12:31:41.505Z,35.00
2018-02-25T12:34:08.965Z,34.90
2018-02-25T12:36:36.437Z,34.60
2018-02-25T12:39:03.899Z,34.40
2018-02-25T12:41:31.389Z,34.70
2018-02-25T12:43:59.610Z,35.10
2018-02-25T12:46:27.087Z,34.80
2018-02-25T12:48:54.572Z,34.30
2018-02-25T12:51:22.030Z,33.80
2018-02-25T12:53:49.511Z,33.60
2018-02-25T12:56:16.986Z,33.70
2018-02-25T12:58:44.453Z,33.90
2018-02-25T13:01:11.922Z,34.10
2018-02-25T13:03:39.369Z,34.20
2018-02-25T13:06:06.865Z,34.30
2018-02-25T13:08:34.361Z,34.60
2018-02-25T13:11:01.777Z,34.70
2018-02-25T13:13:29.424Z,34.80
2018-02-25T13:15:56.880Z,34.70
2018-02-25T13:18:24.358Z,34.70
2018-02-25T13:20:51.817Z,34.60
2018-02-25T13:23:19.280Z,34.50
2018-02-25T13:25:46.754Z,34.20
2018-02-25T13:28:14.262Z,34.30
2018-02-25T13:30:41.713Z,34.40
2018-02-25T13:33:09.198Z,34.40
2018-02-25T13:35:36.647Z,34.20
2018-02-25T13:38:04.103Z,34.70
2018-02-25T13:40:31.606Z,34.20
2018-02-25T13:42:59.829Z,33.90
2018-02-25T13:45:27.298Z,33.90
2018-02-25T13:47:54.761Z,33.90
2018-02-25T13:50:22.242Z,34.10
2018-02-25T13:52:49.709Z,33.70
2018-02-25T13:55:17.215Z,31.30
2018-02-25T13:57:44.661Z,29.70
2018-02-25T14:00:12.113Z,28.20
2018-02-25T14:02:39.588Z,27.20
2018-02-25T14:05:07.161Z,26.70
2018-02-25T14:07:34.637Z,25.90
2018-02-25T14:10:02.119Z,24.70
2018-02-25T14:12:29.608Z,23.90
2018-02-25T14:14:57.094Z,23.20
2018-02-25T14:17:24.554Z,22.80
2018-02-25T14:19:52.036Z,22.00
2018-02-25T14:22:19.494Z,21.50
2018-02-25T14:24:47.014Z,21.30
2018-02-25T14:27:14.540Z,21.20
2018-02-25T14:29:42.761Z,20.50
2018-02-25T14:32:10.254Z,20.40
2018-02-25T14:34:37.705Z,20.70
2018-02-25T14:37:05.186Z,20.50
2018-02-25T14:39:33.483Z,19.60
2018-02-25T14:42:00.946Z,19.60
2018-02-25T14:44:28.443Z,19.70
2018-02-25T14:46:55.917Z,19.60
2018-02-25T14:49:23.363Z,19.60
2018-02-25T14:51:50.908Z,19.70
2018-02-25T14:54:18.393Z,19.60
2018-02-25T14:56:45.972Z,19.60
2018-02-25T14:59:13.457Z,18.70
2018-02-25T15:01:40.914Z,18.60
2018-02-25T15:04:08.394Z,18.40
2018-02-25T15:59:21.208Z,20.20
2018-02-25T16:01:48.675Z,21.10
2018-02-25T16:04:16.157Z,21.40
2018-02-25T16:06:44.409Z,21.20
2018-02-25T16:09:12.275Z,21.10
2018-02-25T16:11:39.800Z,21.10
2018-02-25T16:14:07.257Z,21.30
2018-02-25T16:16:34.794Z,21.30
2018-02-25T16:19:02.512Z,21.30
2018-02-25T16:21:30.004Z,21.50
2018-02-25T16:23:57.463Z,22.00
2018-02-25T16:26:25.753Z,22.90
2018-02-25T16:28:53.209Z,22.90
2018-02-25T16:31:20.907Z,23.40
2018-02-25T16:33:48.417Z,23.60
2018-02-25T16:36:16.779Z,24.20
2018-02-25T16:38:44.260Z,24.20
2018-02-25T16:41:11.824Z,24.80
2018-02-25T16:43:39.577Z,25.20
2018-02-25T16:46:07.089Z,25.70
2018-02-25T16:48:34.906Z,26.00
2018-02-25T16:51:02.416Z,26.30
2018-02-25T16:53:29.897Z,26.60
2018-02-25T16:55:57.357Z,26.90
2018-02-25T16:58:24.862Z,27.20
2018-02-25T17:00:52.437Z,27.60
2018-02-25T17:03:19.939Z,28.00
2018-02-25T17:05:48.327Z,28.50
2018-02-25T17:08:15.978Z,28.50
2018-02-25T17:10:43.550Z,28.80
2018-02-25T17:13:11.798Z,29.30
2018-02-25T17:15:39.377Z,29.20
2018-02-25T17:18:06.962Z,29.50
2018-02-25T17:20:34.494Z,29.70
2018-02-25T17:23:02.159Z,29.90
2018-02-25T17:25:29.863Z,30.00
2018-02-25T17:27:57.393Z,30.20
2018-02-25T17:30:25.760Z,30.40
2018-02-25T17:32:54.164Z,30.50
2018-02-25T17:35:21.833Z,30.50
2018-02-25T17:37:50.362Z,30.60
2018-02-25T17:40:17.971Z,30.80
2018-02-25T17:42:45.613Z,30.90
2018-02-25T17:45:13.892Z,31.20
2018-02-25T17:47:42.122Z,31.40
2018-02-25T17:50:09.753Z,31.30
2018-02-25T17:52:37.421Z,31.40
2018-02-25T17:55:05.041Z,31.50
2018-02-25T17:57:32.850Z,31.60
2018-02-25T18:00:00.479Z,31.80
2018-02-25T18:02:28.768Z,32.00
2018-02-25T18:04:56.461Z,32.00
2018-02-25T18:07:23.957Z,32.10
2018-02-25T18:09:51.582Z,32.40
2018-02-25T18:12:19.105Z,32.40
2018-02-25T18:14:46.753Z,32.50
2018-02-25T18:17:14.249Z,32.70
2018-02-25T18:19:41.765Z,32.80
2018-02-25T18:22:09.253Z,33.00
2018-02-25T18:24:37.497Z,33.20
2018-02-25T18:27:05.765Z,34.00
2018-02-25T18:29:34.024Z,33.60
2018-02-25T18:32:01.471Z,33.60
2018-02-25T18:34:29.176Z,33.90
2018-02-25T18:36:56.650Z,34.10
2018-02-25T18:39:24.128Z,34.40
2018-02-25T18:41:52.369Z,35.10
2018-02-25T18:44:19.836Z,35.10
2018-02-25T18:46:47.293Z,35.90
2018-02-25T18:49:14.766Z,35.60
2018-02-25T18:51:42.992Z,36.00
2018-02-25T18:54:10.449Z,36.00
2018-02-25T18:56:37.958Z,36.10
2018-02-25T18:59:06.194Z,36.50
2018-02-25T19:01:33.808Z,36.50
2018-02-25T19:04:02.038Z,36.90
2018-02-25T19:06:29.501Z,36.80
2018-02-25T19:08:56.970Z,36.90
2018-02-25T19:11:24.521Z,37.20
2018-02-25T19:13:51.969Z,37.40
2018-02-25T19:16:19.429Z,37.70
2018-02-25T19:18:46.959Z,37.90
2018-02-25T19:21:14.389Z,38.20
2018-02-25T19:23:42.632Z,38.70
2018-02-25T19:26:10.100Z,38.70
2018-02-25T19:28:37.574Z,38.80
2018-02-25T19:31:05.793Z,39.20
2018-02-25T19:33:33.402Z,39.20
2018-02-25T19:39:21.344Z,39.80
2018-02-25T19:41:54.632Z,39.80
2018-02-25T19:44:22.114Z,39.80
2018-02-25T19:46:50.047Z,40.20
2018-02-25T19:49:17.541Z,40.40
2018-02-25T19:51:45.013Z,40.70
2018-02-25T19:54:12.692Z,40.70
2018-02-25T19:56:40.988Z,41.70
2018-02-25T19:59:08.525Z,41.10
2018-02-25T20:01:36.145Z,41.20
2018-02-25T20:04:03.875Z,41.50
2018-02-25T20:06:31.399Z,41.60
2018-02-25T20:08:58.974Z,41.80
2018-02-25T20:11:26.622Z,42.00
2018-02-25T20:13:54.311Z,42.20
2018-02-25T20:16:21.999Z,42.30
2018-02-25T20:18:49.655Z,42.40
2018-02-25T20:21:17.248Z,42.70
2018-02-25T20:23:44.771Z,42.90
2018-02-25T20:26:12.382Z,43.20
2018-02-25T20:28:40.069Z,43.30
2018-02-25T20:31:07.642Z,43.50
2018-02-25T20:33:35.353Z,43.70
2018-02-25T20:36:03.053Z,43.90
2018-02-25T20:38:30.669Z,44.10
2018-02-25T20:40:59.073Z,44.40
2018-02-25T20:43:26.566Z,44.40
2018-02-25T20:45:54.021Z,44.80
2018-02-25T20:48:21.506Z,44.90
2018-02-25T20:50:49.011Z,45.10
2018-02-25T20:53:16.503Z,45.30
2018-02-25T20:55:43.982Z,45.40
2018-02-25T20:58:11.491Z,45.50
2018-02-25T21:00:39.721Z,45.70
2018-02-25T21:03:07.178Z,45.70
2018-02-25T21:05:34.670Z,45.80
2018-02-25T21:08:02.138Z,45.90
2018-02-25T21:10:29.636Z,46.10
2018-02-25T21:12:57.106Z,46.20
2018-02-25T21:15:24.565Z,46.30
2018-02-25T21:17:52.066Z,46.40
2018-02-25T21:20:19.542Z,46.40
2018-02-25T21:22:47.762Z,46.80
2018-02-25T21:25:15.272Z,46.70
2018-02-25T21:27:43.504Z,47.00
2018-02-25T21:30:10.997Z,47.00
2018-02-25T21:32:38.459Z,47.30
2018-02-25T21:35:06.710Z,48.20
2018-02-25T21:37:34.173Z,47.90
2018-02-25T21:40:01.658Z,47.90
2018-02-25T21:42:29.888Z,48.20
2018-02-25T21:44:58.158Z,48.30
2018-02-25T21:47:25.626Z,48.30
2018-02-25T21:49:53.129Z,48.20
2018-02-25T21:52:23.083Z,48.40
2018-02-25T21:54:56.326Z,48.70
2018-02-25T21:57:29.477Z,48.90
2018-02-25T22:00:02.674Z,49.20
2018-02-25T22:02:35.934Z,49.30
2018-02-25T22:05:03.398Z,49.40
2018-02-25T22:07:30.853Z,49.50
2018-02-25T22:09:58.416Z,49.60
2018-02-25T22:12:25.882Z,49.80
2018-02-25T22:14:53.353Z,49.90
2018-02-25T22:17:20.833Z,50.20
2018-02-25T22:19:48.299Z,50.30
2018-02-25T22:22:15.778Z,50.30
2018-02-25T22:24:44.030Z,50.40
2018-02-25T22:27:11.495Z,50.40
2018-02-25T22:29:38.970Z,50.50
2018-02-25T22:32:07.222Z,50.90
2018-02-25T22:34:34.690Z,50.80
2018-02-25T22:37:02.177Z,51.00
2018-02-25T22:39:30.397Z,51.00
2018-02-25T22:41:57.896Z,50.90
2018-02-25T22:44:25.358Z,51.10
2018-02-25T22:46:52.821Z,51.10
2018-02-25T22:49:20.317Z,51.00
2018-02-25T22:51:47.933Z,51.00
2018-02-25T22:54:15.410Z,51.20
2018-02-25T22:56:42.876Z,51.20
2018-02-25T22:59:10.365Z,51.00
2018-02-25T23:01:38.594Z,51.20
2018-02-25T23:04:06.060Z,51.20
2018-02-25T23:06:33.541Z,51.40
2018-02-25T23:09:01.077Z,51.50
2018-02-25T23:11:29.334Z,51.90
2018-02-25T23:13:56.799Z,51.40
2018-02-25T23:16:25.018Z,51.30
2018-02-25T23:18:52.497Z,51.30
2018-02-25T23:21:19.990Z,51.40
2018-02-25T23:23:48.218Z,51.10
2018-02-25T23:26:15.681Z,51.10
2018-02-25T23:28:43.178Z,51.00
2018-02-25T23:31:11.411Z,51.00
2018-02-25T23:33:38.878Z,50.90
2018-02-25T23:36:07.133Z,50.80
2018-02-25T23:38:34.666Z,50.70
2018-02-25T23:41:02.905Z,50.50
2018-02-25T23:43:30.390Z,50.50
2018-02-25T23:45:58.621Z,50.50
2018-02-25T23:48:26.106Z,50.50
2018-02-25T23:50:53.594Z,50.50
2018-02-25T23:53:21.819Z,50.50
2018-02-25T23:55:49.322Z,50.50
2018-02-25T23:58:17.550Z,51.00
